sensor_id;sensor_type;location;lat;lon;timestamp;pressure;altitude;pressure_sealevel;temperature;humidity
49297;BME280;35163;48.878;18.040;2023-10-31T00:00:50;97145.53;;;18.46;49.39
49297;BME280;35163;48.878;18.040;2023-10-31T00:03:17;97146.22;;;18.48;49.62
49297;BME280;35163;48.878;18.040;2023-10-31T00:05:44;97132.31;;;18.48;49.04
49297;BME280;35163;48.878;18.040;2023-10-31T00:08:11;97124.00;;;18.42;48.71
49297;BME280;35163;48.878;18.040;2023-10-31T00:10:37;97111.06;;;18.41;48.79
49297;BME280;35163;48.878;18.040;2023-10-31T00:13:04;97104.31;;;18.38;48.37
49297;BME280;35163;48.878;18.040;2023-10-31T00:15:31;97093.72;;;18.40;48.55
49297;BME280;35163;48.878;18.040;2023-10-31T00:17:57;97102.28;;;18.42;48.71
49297;BME280;35163;48.878;18.040;2023-10-31T00:20:24;97098.94;;;18.40;48.65
49297;BME280;35163;48.878;18.040;2023-10-31T00:22:51;97074.28;;;18.42;48.86
49297;BME280;35163;48.878;18.040;2023-10-31T00:25:18;97081.34;;;18.42;48.75
49297;BME280;35163;48.878;18.040;2023-10-31T00:27:45;97063.97;;;18.41;48.60
49297;BME280;35163;48.878;18.040;2023-10-31T00:30:11;97065.63;;;18.42;48.70
49297;BME280;35163;48.878;18.040;2023-10-31T00:32:38;97051.84;;;18.40;48.74
49297;BME280;35163;48.878;18.040;2023-10-31T00:35:05;97046.63;;;18.40;48.30
49297;BME280;35163;48.878;18.040;2023-10-31T00:37:32;97038.06;;;18.38;48.68
49297;BME280;35163;48.878;18.040;2023-10-31T00:39:59;97032.03;;;18.37;48.38
49297;BME280;35163;48.878;18.040;2023-10-31T00:42:25;97034.22;;;18.32;48.23
49297;BME280;35163;48.878;18.040;2023-10-31T00:44:52;97036.56;;;18.35;48.49
49297;BME280;35163;48.878;18.040;2023-10-31T00:47:19;97031.31;;;18.35;48.41
49297;BME280;35163;48.878;18.040;2023-10-31T00:49:45;97018.50;;;18.32;48.50
49297;BME280;35163;48.878;18.040;2023-10-31T00:52:12;97030.34;;;18.36;48.56
49297;BME280;35163;48.878;18.040;2023-10-31T00:54:39;97021.81;;;18.34;48.97
49297;BME280;35163;48.878;18.040;2023-10-31T00:57:06;97015.50;;;18.37;49.21
49297;BME280;35163;48.878;18.040;2023-10-31T00:59:33;97002.53;;;18.35;49.05
49297;BME280;35163;48.878;18.040;2023-10-31T01:01:59;97011.19;;;18.36;49.07
49297;BME280;35163;48.878;18.040;2023-10-31T01:04:26;97006.38;;;18.31;48.77
49297;BME280;35163;48.878;18.040;2023-10-31T01:06:53;97007.06;;;18.33;49.17
49297;BME280;35163;48.878;18.040;2023-10-31T01:09:20;97017.53;;;18.33;49.41
49297;BME280;35163;48.878;18.040;2023-10-31T01:11:46;97009.69;;;18.33;49.41
49297;BME280;35163;48.878;18.040;2023-10-31T01:14:13;97016.00;;;18.30;49.23
49297;BME280;35163;48.878;18.040;2023-10-31T01:16:40;97016.84;;;18.31;49.71
49297;BME280;35163;48.878;18.040;2023-10-31T01:19:07;97014.34;;;18.29;49.65
49297;BME280;35163;48.878;18.040;2023-10-31T01:21:34;97006.38;;;18.31;49.64
49297;BME280;35163;48.878;18.040;2023-10-31T01:24:00;96985.72;;;18.28;49.79
49297;BME280;35163;48.878;18.040;2023-10-31T01:26:27;96991.09;;;18.26;49.87
49297;BME280;35163;48.878;18.040;2023-10-31T01:28:54;96974.56;;;18.26;49.79
49297;BME280;35163;48.878;18.040;2023-10-31T01:31:20;96965.91;;;18.25;50.01
49297;BME280;35163;48.878;18.040;2023-10-31T01:33:47;96971.81;;;18.27;50.29
49297;BME280;35163;48.878;18.040;2023-10-31T01:36:14;96977.72;;;18.29;49.84
49297;BME280;35163;48.878;18.040;2023-10-31T01:38:41;96966.69;;;18.26;49.89
49297;BME280;35163;48.878;18.040;2023-10-31T01:41:08;96964.34;;;18.23;50.33
49297;BME280;35163;48.878;18.040;2023-10-31T01:43:36;96959.41;;;18.19;49.97
49297;BME280;35163;48.878;18.040;2023-10-31T01:46:04;96952.13;;;18.23;50.29
49297;BME280;35163;48.878;18.040;2023-10-31T01:48:32;96943.16;;;18.26;50.68
49297;BME280;35163;48.878;18.040;2023-10-31T01:51:02;96935.19;;;18.27;50.39
49297;BME280;35163;48.878;18.040;2023-10-31T01:53:34;96932.00;;;18.24;50.37
49297;BME280;35163;48.878;18.040;2023-10-31T01:56:03;96936.16;;;18.26;50.70
49297;BME280;35163;48.878;18.040;2023-10-31T01:58:34;96935.59;;;18.23;50.70
49297;BME280;35163;48.878;18.040;2023-10-31T02:01:02;96928.72;;;18.21;50.83
49297;BME280;35163;48.878;18.040;2023-10-31T02:03:30;96931.19;;;18.23;50.84
49297;BME280;35163;48.878;18.040;2023-10-31T02:05:58;96935.59;;;18.23;50.73
49297;BME280;35163;48.878;18.040;2023-10-31T02:08:25;96923.22;;;18.25;50.88
49297;BME280;35163;48.878;18.040;2023-10-31T02:10:52;96911.06;;;18.24;50.88
49297;BME280;35163;48.878;18.040;2023-10-31T02:13:18;96914.66;;;18.23;50.80
49297;BME280;35163;48.878;18.040;2023-10-31T02:15:45;96924.03;;;18.25;50.92
49297;BME280;35163;48.878;18.040;2023-10-31T02:18:13;96921.28;;;18.27;51.29
49297;BME280;35163;48.878;18.040;2023-10-31T02:20:40;96915.22;;;18.26;51.13
49297;BME280;35163;48.878;18.040;2023-10-31T02:23:07;96921.28;;;18.27;51.19
49297;BME280;35163;48.878;18.040;2023-10-31T02:25:33;96919.34;;;18.29;51.31
49297;BME280;35163;48.878;18.040;2023-10-31T02:28:00;96907.25;;;18.28;51.17
49297;BME280;35163;48.878;18.040;2023-10-31T02:30:27;96911.91;;;18.24;50.96
49297;BME280;35163;48.878;18.040;2023-10-31T02:32:54;96910.97;;;18.25;51.18
49297;BME280;35163;48.878;18.040;2023-10-31T02:35:21;96910.81;;;18.27;51.12
49297;BME280;35163;48.878;18.040;2023-10-31T02:37:48;96913.16;;;18.30;51.04
49297;BME280;35163;48.878;18.040;2023-10-31T02:40:16;96918.25;;;18.31;50.91
49297;BME280;35163;48.878;18.040;2023-10-31T02:42:43;96929.66;;;18.30;50.79
49297;BME280;35163;48.878;18.040;2023-10-31T02:45:10;96928.72;;;18.31;50.82
49297;BME280;35163;48.878;18.040;2023-10-31T02:47:37;96932.19;;;18.32;50.74
49297;BME280;35163;48.878;18.040;2023-10-31T02:50:04;96924.34;;;18.32;50.34
49297;BME280;35163;48.878;18.040;2023-10-31T02:52:31;96909.56;;;18.31;50.25
49297;BME280;35163;48.878;18.040;2023-10-31T02:54:58;96917.16;;;18.34;50.36
49297;BME280;35163;48.878;18.040;2023-10-31T02:57:25;96891.69;;;18.36;50.78
49297;BME280;35163;48.878;18.040;2023-10-31T02:59:51;96865.53;;;18.36;51.00
49297;BME280;35163;48.878;18.040;2023-10-31T03:02:18;96876.00;;;18.36;51.11
49297;BME280;35163;48.878;18.040;2023-10-31T03:04:45;96870.63;;;18.38;51.33
49297;BME280;35163;48.878;18.040;2023-10-31T03:07:12;96858.53;;;18.37;51.31
49297;BME280;35163;48.878;18.040;2023-10-31T03:09:38;96854.94;;;18.38;51.45
49297;BME280;35163;48.878;18.040;2023-10-31T03:12:05;96844.47;;;18.38;51.21
49297;BME280;35163;48.878;18.040;2023-10-31T03:14:32;96865.38;;;18.38;51.20
49297;BME280;35163;48.878;18.040;2023-10-31T03:16:59;96850.53;;;18.38;51.03
49297;BME280;35163;48.878;18.040;2023-10-31T03:19:25;96846.94;;;18.39;51.17
49297;BME280;35163;48.878;18.040;2023-10-31T03:21:52;96847.91;;;18.38;50.96
49297;BME280;35163;48.878;18.040;2023-10-31T03:24:19;96845.28;;;18.38;50.72
49297;BME280;35163;48.878;18.040;2023-10-31T03:26:46;96860.03;;;18.39;50.49
49297;BME280;35163;48.878;18.040;2023-10-31T03:29:12;96853.16;;;18.38;50.70
49297;BME280;35163;48.878;18.040;2023-10-31T03:31:39;96849.56;;;18.39;50.44
49297;BME280;35163;48.878;18.040;2023-10-31T03:34:06;96857.53;;;18.38;50.29
49297;BME280;35163;48.878;18.040;2023-10-31T03:36:32;96840.91;;;18.39;50.01
49297;BME280;35163;48.878;18.040;2023-10-31T03:38:59;96852.16;;;18.39;49.70
49297;BME280;35163;48.878;18.040;2023-10-31T03:41:26;96850.53;;;18.38;49.45
49297;BME280;35163;48.878;18.040;2023-10-31T03:43:52;96853.28;;;18.37;49.63
49297;BME280;35163;48.878;18.040;2023-10-31T03:46:19;96841.97;;;18.36;49.74
49297;BME280;35163;48.878;18.040;2023-10-31T03:48:46;96840.19;;;18.37;49.73
49297;BME280;35163;48.878;18.040;2023-10-31T03:51:12;96852.59;;;18.34;49.36
49297;BME280;35163;48.878;18.040;2023-10-31T03:53:39;96848.06;;;18.37;49.54
49297;BME280;35163;48.878;18.040;2023-10-31T03:56:06;96841.03;;;18.37;49.53
49297;BME280;35163;48.878;18.040;2023-10-31T03:58:32;96836.88;;;18.34;49.57
49297;BME280;35163;48.878;18.040;2023-10-31T04:00:59;96840.34;;;18.35;49.41
49297;BME280;35163;48.878;18.040;2023-10-31T04:03:26;96842.81;;;18.37;49.62
49297;BME280;35163;48.878;18.040;2023-10-31T04:05:53;96840.91;;;18.39;50.10
49297;BME280;35163;48.878;18.040;2023-10-31T04:08:19;96834.00;;;18.38;50.14
49297;BME280;35163;48.878;18.040;2023-10-31T04:10:46;96821.88;;;18.37;50.27
49297;BME280;35163;48.878;18.040;2023-10-31T04:13:13;96824.09;;;18.31;50.47
49297;BME280;35163;48.878;18.040;2023-10-31T04:15:40;96797.78;;;18.23;50.64
49297;BME280;35163;48.878;18.040;2023-10-31T04:18:07;96823.13;;;18.23;50.76
49297;BME280;35163;48.878;18.040;2023-10-31T04:20:33;96824.09;;;18.21;51.26
49297;BME280;35163;48.878;18.040;2023-10-31T04:23:00;96828.91;;;18.16;51.86
49297;BME280;35163;48.878;18.040;2023-10-31T04:25:27;96833.16;;;18.17;52.02
49297;BME280;35163;48.878;18.040;2023-10-31T04:27:55;96844.31;;;18.19;52.54
49297;BME280;35163;48.878;18.040;2023-10-31T04:30:22;96841.00;;;18.17;53.11
49297;BME280;35163;48.878;18.040;2023-10-31T04:32:49;96818.44;;;18.16;53.66
49297;BME280;35163;48.878;18.040;2023-10-31T04:35:15;96835.31;;;18.12;53.81
49297;BME280;35163;48.878;18.040;2023-10-31T04:37:42;96856.13;;;18.14;55.20
49297;BME280;35163;48.878;18.040;2023-10-31T04:40:10;96844.66;;;18.05;56.27
49297;BME280;35163;48.878;18.040;2023-10-31T04:42:38;96839.19;;;18.08;57.37
49297;BME280;35163;48.878;18.040;2023-10-31T04:45:07;96838.06;;;18.01;58.14
49297;BME280;35163;48.878;18.040;2023-10-31T04:47:34;96831.44;;;17.96;59.01
49297;BME280;35163;48.878;18.040;2023-10-31T04:50:01;96826.03;;;17.88;59.18
49297;BME280;35163;48.878;18.040;2023-10-31T04:52:28;96828.94;;;17.85;59.06
49297;BME280;35163;48.878;18.040;2023-10-31T04:54:54;96834.28;;;17.83;58.98
49297;BME280;35163;48.878;18.040;2023-10-31T04:57:21;96829.47;;;17.79;58.71
49297;BME280;35163;48.878;18.040;2023-10-31T04:59:48;96849.56;;;17.78;57.96
49297;BME280;35163;48.878;18.040;2023-10-31T05:02:15;96855.28;;;17.72;58.11
49297;BME280;35163;48.878;18.040;2023-10-31T05:04:42;96871.25;;;17.69;58.29
49297;BME280;35163;48.878;18.040;2023-10-31T05:07:10;96880.06;;;17.68;58.09
49297;BME280;35163;48.878;18.040;2023-10-31T05:09:37;96873.28;;;17.65;58.11
49297;BME280;35163;48.878;18.040;2023-10-31T05:12:04;96869.88;;;17.65;58.10
49297;BME280;35163;48.878;18.040;2023-10-31T05:14:31;96860.22;;;17.65;58.00
49297;BME280;35163;48.878;18.040;2023-10-31T05:16:57;96866.25;;;17.56;57.82
49297;BME280;35163;48.878;18.040;2023-10-31T05:19:24;96861.28;;;17.53;57.24
49297;BME280;35163;48.878;18.040;2023-10-31T05:21:51;96868.41;;;17.51;57.14
49297;BME280;35163;48.878;18.040;2023-10-31T05:24:17;96851.91;;;17.50;57.03
49297;BME280;35163;48.878;18.040;2023-10-31T05:26:44;96860.16;;;17.45;56.51
49297;BME280;35163;48.878;18.040;2023-10-31T05:29:11;96880.06;;;17.46;57.02
49297;BME280;35163;48.878;18.040;2023-10-31T05:31:38;96893.28;;;17.45;56.16
49297;BME280;35163;48.878;18.040;2023-10-31T05:34:05;96908.00;;;17.46;56.09
49297;BME280;35163;48.878;18.040;2023-10-31T05:36:32;96890.09;;;17.41;56.22
49297;BME280;35163;48.878;18.040;2023-10-31T05:38:59;96912.91;;;17.39;56.11
49297;BME280;35163;48.878;18.040;2023-10-31T05:41:25;96915.41;;;17.41;56.36
49297;BME280;35163;48.878;18.040;2023-10-31T05:43:52;96922.66;;;17.37;56.48
49297;BME280;35163;48.878;18.040;2023-10-31T05:46:19;96904.38;;;17.37;56.97
49297;BME280;35163;48.878;18.040;2023-10-31T05:48:46;96896.66;;;17.35;56.91
49297;BME280;35163;48.878;18.040;2023-10-31T05:51:14;96909.88;;;17.34;56.48
49297;BME280;35163;48.878;18.040;2023-10-31T05:53:42;96897.03;;;17.31;56.31
49297;BME280;35163;48.878;18.040;2023-10-31T05:56:11;96906.81;;;17.29;56.61
49297;BME280;35163;48.878;18.040;2023-10-31T05:58:39;96912.28;;;17.26;56.10
49297;BME280;35163;48.878;18.040;2023-10-31T06:01:07;96906.09;;;17.27;56.30
49297;BME280;35163;48.878;18.040;2023-10-31T06:03:34;96920.00;;;17.27;56.12
49297;BME280;35163;48.878;18.040;2023-10-31T06:06:01;96929.59;;;17.27;55.85
49297;BME280;35163;48.878;18.040;2023-10-31T06:08:28;96920.13;;;17.26;56.01
49297;BME280;35163;48.878;18.040;2023-10-31T06:10:56;96925.22;;;17.27;56.04
49297;BME280;35163;48.878;18.040;2023-10-31T06:13:24;96915.72;;;17.26;55.72
49297;BME280;35163;48.878;18.040;2023-10-31T06:15:54;96913.34;;;17.23;55.61
49297;BME280;35163;48.878;18.040;2023-10-31T06:18:26;96926.41;;;17.23;55.58
49297;BME280;35163;48.878;18.040;2023-10-31T06:20:53;96921.91;;;17.25;55.53
49297;BME280;35163;48.878;18.040;2023-10-31T06:23:19;96931.50;;;17.24;55.41
49297;BME280;35163;48.878;18.040;2023-10-31T06:25:46;96923.53;;;17.26;55.02
49297;BME280;35163;48.878;18.040;2023-10-31T06:28:13;96929.88;;;17.23;54.44
49297;BME280;35163;48.878;18.040;2023-10-31T06:30:40;96941.13;;;17.24;54.66
49297;BME280;35163;48.878;18.040;2023-10-31T06:33:06;96942.78;;;17.25;54.76
49297;BME280;35163;48.878;18.040;2023-10-31T06:35:37;96932.22;;;17.27;54.79
49297;BME280;35163;48.878;18.040;2023-10-31T06:38:04;96940.06;;;17.27;54.37
49297;BME280;35163;48.878;18.040;2023-10-31T06:40:30;96940.06;;;17.27;53.72
49297;BME280;35163;48.878;18.040;2023-10-31T06:42:57;96964.16;;;17.30;53.61
49297;BME280;35163;48.878;18.040;2023-10-31T06:45:24;96967.56;;;17.31;53.25
49297;BME280;35163;48.878;18.040;2023-10-31T06:47:51;96984.91;;;17.32;53.67
49297;BME280;35163;48.878;18.040;2023-10-31T06:50:18;96971.72;;;17.33;53.33
49297;BME280;35163;48.878;18.040;2023-10-31T06:52:46;96979.69;;;17.32;53.15
49297;BME280;35163;48.878;18.040;2023-10-31T06:55:13;96975.66;;;17.28;52.53
49297;BME280;35163;48.878;18.040;2023-10-31T06:57:40;96990.00;;;17.33;53.03
49297;BME280;35163;48.878;18.040;2023-10-31T07:00:08;96997.72;;;17.35;53.04
49297;BME280;35163;48.878;18.040;2023-10-31T07:02:36;97003.66;;;17.37;53.03
49297;BME280;35163;48.878;18.040;2023-10-31T07:05:03;97004.47;;;17.38;52.64
49297;BME280;35163;48.878;18.040;2023-10-31T07:07:30;97013.97;;;17.39;52.78
49297;BME280;35163;48.878;18.040;2023-10-31T07:09:57;97021.69;;;17.40;53.15
49297;BME280;35163;48.878;18.040;2023-10-31T07:12:24;97009.44;;;17.41;53.35
49297;BME280;35163;48.878;18.040;2023-10-31T07:14:51;97017.16;;;17.42;53.12
49297;BME280;35163;48.878;18.040;2023-10-31T07:17:17;97025.72;;;17.44;53.58
49297;BME280;35163;48.878;18.040;2023-10-31T07:19:44;97032.56;;;17.45;53.45
49297;BME280;35163;48.878;18.040;2023-10-31T07:22:11;97039.44;;;17.46;53.48
49297;BME280;35163;48.878;18.040;2023-10-31T07:24:38;97047.16;;;17.48;54.16
49297;BME280;35163;48.878;18.040;2023-10-31T07:27:04;97056.53;;;17.51;54.47
49297;BME280;35163;48.878;18.040;2023-10-31T07:29:31;97060.13;;;17.49;54.99
49297;BME280;35163;48.878;18.040;2023-10-31T07:31:58;97057.38;;;17.51;55.03
49297;BME280;35163;48.878;18.040;2023-10-31T07:34:25;97053.81;;;17.52;54.67
49297;BME280;35163;48.878;18.040;2023-10-31T07:36:51;97062.34;;;17.54;55.29
49297;BME280;35163;48.878;18.040;2023-10-31T07:39:18;97065.91;;;17.53;55.57
49297;BME280;35163;48.878;18.040;2023-10-31T07:41:45;97075.28;;;17.56;55.75
49297;BME280;35163;48.878;18.040;2023-10-31T07:44:12;97074.44;;;17.55;56.12
49297;BME280;35163;48.878;18.040;2023-10-31T07:46:39;97072.69;;;17.56;56.77
49297;BME280;35163;48.878;18.040;2023-10-31T07:49:06;97068.63;;;17.52;56.62
49297;BME280;35163;48.878;18.040;2023-10-31T07:51:32;97071.84;;;17.55;56.95
49297;BME280;35163;48.878;18.040;2023-10-31T07:53:59;97060.66;;;17.53;56.88
49297;BME280;35163;48.878;18.040;2023-10-31T07:56:26;97063.19;;;17.55;57.15
49297;BME280;35163;48.878;18.040;2023-10-31T07:58:53;97079.81;;;17.54;57.38
49297;BME280;35163;48.878;18.040;2023-10-31T08:01:22;97088.34;;;17.56;57.29
49297;BME280;35163;48.878;18.040;2023-10-31T08:03:49;97087.63;;;17.54;57.32
49297;BME280;35163;48.878;18.040;2023-10-31T08:06:16;97083.13;;;17.56;57.66
49297;BME280;35163;48.878;18.040;2023-10-31T08:08:42;97100.44;;;17.57;57.55
49297;BME280;35163;48.878;18.040;2023-10-31T08:11:10;97090.97;;;17.56;57.40
49297;BME280;35163;48.878;18.040;2023-10-31T08:13:38;97094.53;;;17.55;57.53
49297;BME280;35163;48.878;18.040;2023-10-31T08:16:05;97106.78;;;17.54;57.57
49297;BME280;35163;48.878;18.040;2023-10-31T08:18:33;97105.00;;;17.55;57.34
49297;BME280;35163;48.878;18.040;2023-10-31T08:21:00;97111.03;;;17.55;57.68
49297;BME280;35163;48.878;18.040;2023-10-31T08:23:28;97120.69;;;17.55;57.94
49297;BME280;35163;48.878;18.040;2023-10-31T08:25:56;97129.44;;;17.54;57.97
49297;BME280;35163;48.878;18.040;2023-10-31T08:28:23;97130.41;;;17.53;58.14
49297;BME280;35163;48.878;18.040;2023-10-31T08:30:49;97133.03;;;17.53;57.83
49297;BME280;35163;48.878;18.040;2023-10-31T08:33:16;97139.91;;;17.54;57.96
49297;BME280;35163;48.878;18.040;2023-10-31T08:35:43;97138.25;;;17.53;58.39
49297;BME280;35163;48.878;18.040;2023-10-31T08:38:10;97143.72;;;17.49;58.66
49297;BME280;35163;48.878;18.040;2023-10-31T08:40:49;97139.06;;;17.53;58.67
49297;BME280;35163;48.878;18.040;2023-10-31T08:43:16;97145.84;;;17.56;58.55
49297;BME280;35163;48.878;18.040;2023-10-31T08:45:43;97137.28;;;17.54;58.65
49297;BME280;35163;48.878;18.040;2023-10-31T08:48:10;97141.56;;;17.55;58.54
49297;BME280;35163;48.878;18.040;2023-10-31T08:50:36;97135.25;;;17.57;58.69
49297;BME280;35163;48.878;18.040;2023-10-31T08:53:04;97131.94;;;17.55;58.80
49297;BME280;35163;48.878;18.040;2023-10-31T08:55:31;97145.00;;;17.55;59.10
49297;BME280;35163;48.878;18.040;2023-10-31T08:57:58;97159.97;;;17.53;59.37
49297;BME280;35163;48.878;18.040;2023-10-31T09:00:24;97170.31;;;17.55;59.74
49297;BME280;35163;48.878;18.040;2023-10-31T09:02:51;97172.09;;;17.54;59.68
49297;BME280;35163;48.878;18.040;2023-10-31T09:05:18;97158.06;;;17.55;59.53
49297;BME280;35163;48.878;18.040;2023-10-31T09:07:45;97144.06;;;17.56;59.83
49297;BME280;35163;48.878;18.040;2023-10-31T09:10:12;97143.22;;;17.56;60.16
49297;BME280;35163;48.878;18.040;2023-10-31T09:12:39;97149.16;;;17.58;60.04
49297;BME280;35163;48.878;18.040;2023-10-31T09:15:06;97137.75;;;17.59;60.03
49297;BME280;35163;48.878;18.040;2023-10-31T09:17:33;97137.63;;;17.60;59.87
49297;BME280;35163;48.878;18.040;2023-10-31T09:20:00;97132.25;;;17.62;59.38
49297;BME280;35163;48.878;18.040;2023-10-31T09:22:27;97124.44;;;17.62;59.88
49297;BME280;35163;48.878;18.040;2023-10-31T09:24:54;97121.81;;;17.62;59.85
49297;BME280;35163;48.878;18.040;2023-10-31T09:27:20;97121.81;;;17.62;59.86
49297;BME280;35163;48.878;18.040;2023-10-31T09:29:47;97111.50;;;17.60;59.93
49297;BME280;35163;48.878;18.040;2023-10-31T09:32:15;97117.16;;;17.66;59.91
49297;BME280;35163;48.878;18.040;2023-10-31T09:34:42;97120.63;;;17.66;59.69
49297;BME280;35163;48.878;18.040;2023-10-31T09:37:09;97128.47;;;17.66;59.64
49297;BME280;35163;48.878;18.040;2023-10-31T09:39:36;97137.81;;;17.69;59.82
49297;BME280;35163;48.878;18.040;2023-10-31T09:42:03;97125.59;;;17.69;59.73
49297;BME280;35163;48.878;18.040;2023-10-31T09:44:30;97126.31;;;17.71;60.53
49297;BME280;35163;48.878;18.040;2023-10-31T09:46:56;97118.19;;;17.75;60.44
49297;BME280;35163;48.878;18.040;2023-10-31T09:49:24;97104.16;;;17.76;60.34
49297;BME280;35163;48.878;18.040;2023-10-31T09:51:51;97100.75;;;17.75;60.22
49297;BME280;35163;48.878;18.040;2023-10-31T09:54:18;97118.66;;;17.80;60.15
49297;BME280;35163;48.878;18.040;2023-10-31T09:56:46;97133.50;;;17.79;59.11
49297;BME280;35163;48.878;18.040;2023-10-31T09:59:15;97120.31;;;17.81;59.79
49297;BME280;35163;48.878;18.040;2023-10-31T10:01:42;97102.72;;;17.83;60.04
49297;BME280;35163;48.878;18.040;2023-10-31T10:04:09;97095.84;;;17.82;59.62
49297;BME280;35163;48.878;18.040;2023-10-31T10:06:57;97096.41;;;17.85;59.60
49297;BME280;35163;48.878;18.040;2023-10-31T10:09:25;97099.03;;;17.85;59.81
49297;BME280;35163;48.878;18.040;2023-10-31T10:11:52;97104.25;;;17.85;59.98
49297;BME280;35163;48.878;18.040;2023-10-31T10:14:24;97121.47;;;17.88;59.04
49297;BME280;35163;48.878;18.040;2023-10-31T10:16:51;97130.00;;;17.90;59.29
49297;BME280;35163;48.878;18.040;2023-10-31T10:19:20;97111.59;;;17.92;59.89
49297;BME280;35163;48.878;18.040;2023-10-31T10:21:55;97107.88;;;17.94;59.64
49297;BME280;35163;48.878;18.040;2023-10-31T10:24:23;97108.59;;;17.96;59.18
49297;BME280;35163;48.878;18.040;2023-10-31T10:26:51;97098.25;;;17.95;59.61
49297;BME280;35163;48.878;18.040;2023-10-31T10:29:18;97100.03;;;17.94;59.43
49297;BME280;35163;48.878;18.040;2023-10-31T10:31:45;97096.47;;;17.95;59.33
49297;BME280;35163;48.878;18.040;2023-10-31T10:34:15;97085.75;;;17.98;59.44
49297;BME280;35163;48.878;18.040;2023-10-31T10:36:48;97095.50;;;17.96;59.17
49297;BME280;35163;48.878;18.040;2023-10-31T10:39:20;97091.00;;;17.98;59.40
49297;BME280;35163;48.878;18.040;2023-10-31T10:41:55;97091.81;;;17.99;59.69
49297;BME280;35163;48.878;18.040;2023-10-31T10:44:33;97084.78;;;18.00;59.23
49297;BME280;35163;48.878;18.040;2023-10-31T10:47:03;97069.81;;;18.02;59.52
49297;BME280;35163;48.878;18.040;2023-10-31T10:49:36;97073.38;;;18.01;59.43
49297;BME280;35163;48.878;18.040;2023-10-31T10:52:22;97080.25;;;18.02;59.69
49297;BME280;35163;48.878;18.040;2023-10-31T10:57:38;97073.25;;;18.02;60.00
49297;BME280;35163;48.878;18.040;2023-10-31T11:00:06;97064.72;;;18.00;59.88
49297;BME280;35163;48.878;18.040;2023-10-31T11:02:39;97059.59;;;17.98;59.47
49297;BME280;35163;48.878;18.040;2023-10-31T11:05:10;97062.22;;;17.98;60.28
49297;BME280;35163;48.878;18.040;2023-10-31T11:07:37;97063.88;;;18.00;60.88
49297;BME280;35163;48.878;18.040;2023-10-31T11:10:05;97070.06;;;17.98;60.90
49297;BME280;35163;48.878;18.040;2023-10-31T11:12:33;97062.22;;;17.98;60.52
49297;BME280;35163;48.878;18.040;2023-10-31T11:15:00;97076.94;;;18.00;60.60
49297;BME280;35163;48.878;18.040;2023-10-31T11:17:31;97070.78;;;18.01;61.38
49297;BME280;35163;48.878;18.040;2023-10-31T11:20:01;97063.19;;;17.97;60.59
49297;BME280;35163;48.878;18.040;2023-10-31T11:22:45;97070.06;;;17.98;61.00
49297;BME280;35163;48.878;18.040;2023-10-31T11:25:15;97077.06;;;17.98;61.23
49297;BME280;35163;48.878;18.040;2023-10-31T11:27:57;97074.72;;;17.95;61.85
49297;BME280;35163;48.878;18.040;2023-10-31T11:30:36;97068.09;;;17.91;62.30
49297;BME280;35163;48.878;18.040;2023-10-31T11:33:03;97061.19;;;17.90;62.07
49297;BME280;35163;48.878;18.040;2023-10-31T11:35:36;97055.25;;;17.88;62.89
49297;BME280;35163;48.878;18.040;2023-10-31T11:38:06;97049.91;;;17.89;63.98
49297;BME280;35163;48.878;18.040;2023-10-31T11:40:34;97043.28;;;17.85;65.88
49297;BME280;35163;48.878;18.040;2023-10-31T11:43:05;97040.81;;;17.83;65.27
49297;BME280;35163;48.878;18.040;2023-10-31T11:45:39;97035.59;;;17.83;66.01
49297;BME280;35163;48.878;18.040;2023-10-31T11:48:11;97033.09;;;17.82;66.17
49297;BME280;35163;48.878;18.040;2023-10-31T11:50:38;97034.88;;;17.81;67.51
49297;BME280;35163;48.878;18.040;2023-10-31T11:53:09;97032.25;;;17.81;67.46
49297;BME280;35163;48.878;18.040;2023-10-31T11:55:47;97036.66;;;17.81;67.47
49297;BME280;35163;48.878;18.040;2023-10-31T11:58:20;97037.75;;;17.78;67.29
49297;BME280;35163;48.878;18.040;2023-10-31T12:00:49;97025.75;;;17.76;68.17
49297;BME280;35163;48.878;18.040;2023-10-31T12:03:19;97021.50;;;17.75;68.01
49297;BME280;35163;48.878;18.040;2023-10-31T12:05:57;97016.25;;;17.75;67.97
49297;BME280;35163;48.878;18.040;2023-10-31T12:08:29;97016.41;;;17.73;67.63
49297;BME280;35163;48.878;18.040;2023-10-31T12:11:25;97001.91;;;17.69;68.02
49297;BME280;35163;48.878;18.040;2023-10-31T12:16:31;97010.16;;;17.64;68.43
49297;BME280;35163;48.878;18.040;2023-10-31T12:19:00;97008.50;;;17.63;68.65
49297;BME280;35163;48.878;18.040;2023-10-31T12:21:40;97020.03;;;17.60;69.00
49297;BME280;35163;48.878;18.040;2023-10-31T12:24:10;97023.03;;;17.56;69.40
49297;BME280;35163;48.878;18.040;2023-10-31T12:26:38;97023.41;;;17.51;69.60
49297;BME280;35163;48.878;18.040;2023-10-31T12:29:16;97025.31;;;17.49;69.97
49297;BME280;35163;48.878;18.040;2023-10-31T12:31:45;97027.34;;;17.45;70.68
49297;BME280;35163;48.878;18.040;2023-10-31T12:34:16;97028.31;;;17.44;70.65
49297;BME280;35163;48.878;18.040;2023-10-31T12:36:45;97045.91;;;17.42;70.97
49297;BME280;35163;48.878;18.040;2023-10-31T12:39:13;97058.97;;;17.42;71.25
49297;BME280;35163;48.878;18.040;2023-10-31T12:41:41;97065.25;;;17.40;71.36
49297;BME280;35163;48.878;18.040;2023-10-31T12:44:08;97073.91;;;17.40;71.40
49297;BME280;35163;48.878;18.040;2023-10-31T12:46:39;97089.72;;;17.39;71.80
49297;BME280;35163;48.878;18.040;2023-10-31T12:49:17;97092.47;;;17.37;71.99
49297;BME280;35163;48.878;18.040;2023-10-31T12:52:01;97097.81;;;17.35;72.50
49297;BME280;35163;48.878;18.040;2023-10-31T12:54:29;97095.56;;;17.31;72.48
49297;BME280;35163;48.878;18.040;2023-10-31T12:57:15;97106.00;;;17.31;72.82
49297;BME280;35163;48.878;18.040;2023-10-31T12:59:42;97100.44;;;17.24;72.85